Time;durP1;ratioP1;P1;durP2;ratioP2;P2;SDS_P1;SDS_P2;PMS_P1;PMS_P2;Temp;Humidity;BMP_temperature;BMP_pressure;BME280_temperature;BME280_humidity;BME280_pressure;Samples;Min_cycle;Max_cycle;Signal;HPM_P1;HPM_P2
2021/09/02 04:01:27;;;;;;;10.40;9.40;;;12.90;99.90;;;;;;5513749;23;20545;-66
2021/09/02 04:03:54;;;;;;;10.23;9.37;;;12.90;99.90;;;;;;4994709;28;20453;-66
2021/09/02 04:06:21;;;;;;;10.70;9.80;;;12.80;99.90;;;;;;4995150;28;20457;-66
2021/09/02 04:08:48;;;;;;;10.77;9.77;;;12.90;99.90;;;;;;4994665;28;21010;-66
2021/09/02 04:11:15;;;;;;;10.10;9.20;;;12.80;99.90;;;;;;4994721;28;20885;-66
2021/09/02 04:13:41;;;;;;;11.23;10.13;;;12.80;99.90;;;;;;4994821;28;20468;-66
2021/09/02 04:16:08;;;;;;;10.20;9.20;;;12.80;99.90;;;;;;4994849;28;20462;-66
2021/09/02 04:18:36;;;;;;;10.53;9.43;;;12.80;99.90;;;;;;4994992;28;20450;-66
2021/09/02 04:21:04;;;;;;;11.20;10.07;;;12.80;99.90;;;;;;4994566;28;20478;-65
2021/09/02 04:23:31;;;;;;;9.80;9.00;;;12.80;99.90;;;;;;4994803;28;20465;-65
2021/09/02 04:25:58;;;;;;;11.70;10.70;;;12.80;99.90;;;;;;4994594;28;20993;-65
2021/09/02 04:28:25;;;;;;;10.97;9.90;;;12.80;99.90;;;;;;4995274;28;20474;-66
2021/09/02 04:30:52;;;;;;;11.10;10.07;;;12.80;99.90;;;;;;4994924;28;20549;-65
2021/09/02 04:33:19;;;;;;;10.23;9.23;;;12.80;99.90;;;;;;4994876;28;20857;-65
2021/09/02 04:35:47;;;;;;;10.60;9.63;;;12.70;99.90;;;;;;4994889;28;20490;-65
2021/09/02 04:38:13;;;;;;;10.60;9.60;;;12.70;99.90;;;;;;4994705;28;20457;-66
2021/09/02 04:40:40;;;;;;;11.00;10.00;;;12.70;99.90;;;;;;4994955;28;20481;-65
2021/09/02 04:43:07;;;;;;;12.30;11.20;;;12.70;99.90;;;;;;4994593;28;20967;-65
2021/09/02 04:45:34;;;;;;;11.50;10.50;;;12.70;99.90;;;;;;4994906;28;20469;-65
2021/09/02 04:48:00;;;;;;;10.90;9.90;;;12.70;99.90;;;;;;4994719;28;20482;-65
2021/09/02 04:50:27;;;;;;;12.00;10.90;;;12.70;99.90;;;;;;4994577;28;20975;-65
2021/09/02 04:52:56;;;;;;;10.40;9.50;;;12.70;99.90;;;;;;4994931;28;20468;-65
2021/09/02 04:55:23;;;;;;;11.50;10.40;;;12.70;99.90;;;;;;4994690;28;20886;-66
2021/09/02 04:57:49;;;;;;;13.60;12.20;;;12.70;99.90;;;;;;4998454;28;20460;-66
2021/09/02 05:00:16;;;;;;;15.60;10.73;;;12.70;99.90;;;;;;4998568;28;20840;-66
2021/09/02 05:02:43;;;;;;;20.80;11.93;;;12.70;99.90;;;;;;4998352;28;20434;-65
2021/09/02 05:05:10;;;;;;;28.10;15.17;;;12.80;99.90;;;;;;4998238;28;20460;-66
2021/09/02 05:07:36;;;;;;;23.47;12.53;;;12.70;99.90;;;;;;5002573;28;20818;-65
2021/09/02 05:10:09;;;;;;;25.30;14.33;;;12.70;99.90;;;;;;5003926;28;20450;-65
2021/09/02 05:12:36;;;;;;;33.33;16.13;;;12.80;99.90;;;;;;4998218;28;20826;-65
2021/09/02 05:15:02;;;;;;;26.70;15.07;;;12.80;99.90;;;;;;4998068;28;20461;-65
2021/09/02 05:17:29;;;;;;;28.60;14.10;;;12.80;99.90;;;;;;4998166;28;20453;-65
2021/09/02 05:19:56;;;;;;;23.60;12.70;;;12.80;99.90;;;;;;4997827;28;20937;-65
2021/09/02 05:22:23;;;;;;;12.43;10.30;;;12.80;99.90;;;;;;4998106;28;20477;-65
2021/09/02 05:24:49;;;;;;;14.00;11.10;;;12.80;99.90;;;;;;4998020;28;20453;-65
2021/09/02 05:27:18;;;;;;;13.10;10.87;;;12.80;99.90;;;;;;4998014;28;20454;-65
2021/09/02 05:29:44;;;;;;;12.87;11.27;;;12.70;99.90;;;;;;4997513;28;20814;-65
2021/09/02 05:32:11;;;;;;;13.80;10.50;;;12.70;99.90;;;;;;4997826;28;20473;-65
2021/09/02 05:34:38;;;;;;;11.47;10.40;;;12.70;99.90;;;;;;4997708;28;20458;-65
2021/09/02 05:37:05;;;;;;;12.17;10.70;;;12.70;99.90;;;;;;4997793;28;20469;-65
2021/09/02 05:39:31;;;;;;;10.60;9.50;;;12.80;99.90;;;;;;4997381;28;20450;-65
2021/09/02 05:41:58;;;;;;;11.50;10.50;;;12.80;99.90;;;;;;4998076;28;20876;-65
2021/09/02 05:44:26;;;;;;;12.10;10.90;;;12.80;99.90;;;;;;4997772;28;20458;-66
2021/09/02 05:46:55;;;;;;;10.97;9.87;;;13.00;99.90;;;;;;4996840;28;20457;-66
2021/09/02 05:49:22;;;;;;;13.13;10.27;;;13.20;99.90;;;;;;4997092;28;20478;-66
2021/09/02 05:51:49;;;;;;;9.63;8.63;;;13.30;99.90;;;;;;4997167;28;20477;-65
2021/09/02 05:54:15;;;;;;;12.23;10.90;;;13.50;99.90;;;;;;4997267;28;20481;-65
2021/09/02 05:56:42;;;;;;;12.30;10.40;;;13.60;99.90;;;;;;4996663;28;20944;-65
2021/09/02 05:59:09;;;;;;;10.43;9.43;;;13.90;99.90;;;;;;4996564;28;20461;-65
2021/09/02 06:01:37;;;;;;;10.27;9.27;;;14.20;99.90;;;;;;4996695;28;21054;-65
2021/09/02 06:04:04;;;;;;;12.03;8.57;;;14.70;99.90;;;;;;4998172;28;20454;-64
2021/09/02 06:06:31;;;;;;;9.17;8.37;;;15.20;99.90;;;;;;4996924;28;20454;-65
2021/09/02 06:08:57;;;;;;;9.23;8.27;;;15.60;99.90;;;;;;4997202;28;20532;-65
2021/09/02 06:11:24;;;;;;;10.20;9.20;;;16.10;99.90;;;;;;4997491;28;20514;-65
2021/09/02 06:13:51;;;;;;;10.30;9.20;;;16.40;99.90;;;;;;4996736;28;20456;-65
2021/09/02 06:16:17;;;;;;;8.63;7.93;;;16.60;99.90;;;;;;4996796;28;20480;-65
2021/09/02 06:18:45;;;;;;;13.17;8.53;;;16.70;99.90;;;;;;4996835;28;20450;-64
2021/09/02 06:21:13;;;;;;;9.07;8.27;;;17.30;99.90;;;;;;4996989;28;20469;-64
2021/09/02 06:23:39;;;;;;;8.47;7.63;;;17.70;99.90;;;;;;4997150;28;20464;-65
2021/09/02 06:26:06;;;;;;;9.73;8.80;;;18.40;99.90;;;;;;4996821;28;20454;-65
2021/09/02 06:28:33;;;;;;;10.63;8.03;;;18.80;99.90;;;;;;4996433;28;20480;-65
2021/09/02 06:30:59;;;;;;;9.07;8.13;;;18.90;99.90;;;;;;4996397;28;20840;-65
2021/09/02 06:33:26;;;;;;;10.00;9.20;;;19.40;99.90;;;;;;4996300;28;20461;-65
2021/09/02 06:35:54;;;;;;;11.27;9.80;;;19.70;99.90;;;;;;4996189;28;20458;-65
2021/09/02 06:38:21;;;;;;;11.07;9.87;;;20.00;99.90;;;;;;4996119;28;20461;-65
2021/09/02 06:40:48;;;;;;;9.90;8.90;;;20.30;99.90;;;;;;4996221;28;20484;-65
2021/09/02 06:43:15;;;;;;;11.33;8.90;;;20.70;99.90;;;;;;4996117;28;20817;-65
2021/09/02 06:45:42;;;;;;;9.63;8.83;;;21.20;99.90;;;;;;4996394;28;20464;-65
2021/09/02 06:48:08;;;;;;;9.57;8.57;;;21.70;99.90;;;;;;4996044;28;21007;-65
2021/09/02 06:50:35;;;;;;;12.70;9.43;;;22.00;99.90;;;;;;4995942;28;20882;-65
2021/09/02 06:53:03;;;;;;;9.97;9.07;;;22.40;99.90;;;;;;4996278;28;20465;-64
2021/09/02 06:55:30;;;;;;;9.87;8.13;;;22.90;99.90;;;;;;4995629;28;20967;-65
2021/09/02 06:57:56;;;;;;;7.70;7.07;;;22.90;99.90;;;;;;4995524;28;20453;-65
2021/09/02 07:00:23;;;;;;;9.47;8.47;;;23.20;99.90;;;;;;4996783;28;20486;-65
2021/09/02 07:02:50;;;;;;;9.17;8.27;;;23.30;99.90;;;;;;4996359;28;20439;-66
2021/09/02 07:05:17;;;;;;;9.90;9.20;;;23.10;99.90;;;;;;4995992;28;20823;-65
2021/09/02 07:07:44;;;;;;;10.00;8.60;;;23.10;99.90;;;;;;4995871;28;20454;-65
2021/09/02 07:10:12;;;;;;;11.27;9.97;;;22.90;99.90;;;;;;4996263;28;20553;-65
2021/09/02 07:12:39;;;;;;;9.83;8.67;;;22.90;99.90;;;;;;4995400;28;20453;-64
2021/09/02 07:15:07;;;;;;;8.87;8.17;;;23.20;99.90;;;;;;4995868;28;20462;-64
2021/09/02 07:17:34;;;;;;;8.47;7.63;;;23.60;99.90;;;;;;4995407;28;20986;-64
2021/09/02 07:20:01;;;;;;;7.63;6.97;;;24.20;99.90;;;;;;4995324;28;20449;-63
2021/09/02 07:22:27;;;;;;;12.10;7.90;;;24.70;99.90;;;;;;4995360;28;20838;-65
2021/09/02 07:24:54;;;;;;;8.30;7.70;;;25.30;98.60;;;;;;4995719;28;20450;-63
2021/09/02 07:27:22;;;;;;;8.10;7.40;;;25.70;98.20;;;;;;4995713;28;20454;-64
2021/09/02 07:29:49;;;;;;;7.97;7.33;;;25.50;97.50;;;;;;4995162;28;20478;-63
2021/09/02 07:32:15;;;;;;;9.27;8.37;;;26.00;97.00;;;;;;4995649;28;20834;-64
2021/09/02 07:34:43;;;;;;;9.00;7.63;;;25.70;97.30;;;;;;4995428;28;20464;-64
2021/09/02 07:37:10;;;;;;;9.50;8.50;;;25.40;98.20;;;;;;4995384;28;20454;-63
2021/09/02 07:39:38;;;;;;;8.00;7.40;;;25.70;96.60;;;;;;4995300;28;20450;-64
2021/09/02 07:42:04;;;;;;;7.43;6.93;;;25.90;96.60;;;;;;4995513;28;20478;-63
2021/09/02 07:44:33;;;;;;;9.20;8.50;;;26.30;95.50;;;;;;4996035;28;20457;-64
2021/09/02 07:47:00;;;;;;;9.40;8.40;;;26.70;94.30;;;;;;5002966;28;20453;-64
2021/09/02 07:49:26;;;;;;;8.23;7.43;;;26.50;93.20;;;;;;5002103;28;20474;-64
2021/09/02 07:51:53;;;;;;;8.50;7.70;;;27.10;93.70;;;;;;4995610;28;20480;-64
2021/09/02 07:54:20;;;;;;;9.07;8.27;;;27.10;92.90;;;;;;4995536;28;20457;-64
2021/09/02 07:56:46;;;;;;;8.70;8.00;;;27.50;91.40;;;;;;4995315;28;20462;-64
2021/09/02 07:59:15;;;;;;;8.60;7.97;;;27.30;90.30;;;;;;4995129;28;20449;-64
2021/09/02 08:01:43;;;;;;;8.83;8.07;;;27.70;91.50;;;;;;4994888;28;20481;-64
2021/09/02 08:04:10;;;;;;;8.93;7.90;;;27.80;91.20;;;;;;4994850;28;20843;-64
2021/09/02 08:06:37;;;;;;;8.53;7.83;;;28.20;90.70;;;;;;4994772;28;20512;-65
2021/09/02 08:09:04;;;;;;;9.70;9.00;;;27.60;90.00;;;;;;4995233;28;20879;-65
2021/09/02 08:11:31;;;;;;;9.07;8.17;;;27.80;88.10;;;;;;4994984;28;20481;-65
2021/09/02 08:13:58;;;;;;;9.10;8.30;;;28.10;88.30;;;;;;4994994;28;20446;-65
2021/09/02 08:16:25;;;;;;;8.50;7.80;;;28.70;85.90;;;;;;4994968;28;20846;-65
2021/09/02 08:18:53;;;;;;;9.40;8.50;;;28.70;86.80;;;;;;4995245;28;20458;-65
2021/09/02 08:21:22;;;;;;;8.27;7.50;;;28.30;89.30;;;;;;4994680;28;20478;-65
2021/09/02 08:23:49;;;;;;;8.57;7.97;;;28.60;84.60;;;;;;4994524;28;20484;-65
2021/09/02 08:26:15;;;;;;;8.67;7.93;;;29.10;81.00;;;;;;4994852;28;20462;-65
2021/09/02 08:28:42;;;;;;;9.73;8.47;;;28.40;87.50;;;;;;4994521;28;20992;-65
2021/09/02 08:31:09;;;;;;;9.70;8.70;;;29.20;82.10;;;;;;4998235;28;20478;-65
2021/09/02 08:33:36;;;;;;;9.67;8.40;;;29.10;84.10;;;;;;4998665;28;20454;-65
2021/09/02 08:36:04;;;;;;;8.60;7.93;;;28.40;81.30;;;;;;4998672;28;20461;-66
2021/09/02 08:38:31;;;;;;;9.30;8.50;;;28.50;85.00;;;;;;4999955;28;20454;-65
2021/09/02 08:40:58;;;;;;;9.93;8.97;;;29.40;81.00;;;;;;4998312;28;20484;-65
2021/09/02 08:43:25;;;;;;;8.80;8.10;;;29.80;79.10;;;;;;4998408;28;20964;-64
2021/09/02 08:45:52;;;;;;;9.20;8.27;;;30.30;83.50;;;;;;4998639;28;20532;-64
2021/09/02 08:48:19;;;;;;;8.87;8.07;;;30.50;76.90;;;;;;4998487;28;20453;-64
2021/09/02 08:50:46;;;;;;;9.53;8.73;;;31.10;75.30;;;;;;4998388;28;20482;-66
2021/09/02 08:53:14;;;;;;;8.90;8.30;;;31.00;74.00;;;;;;4998682;28;20453;-64
2021/09/02 08:55:41;;;;;;;8.90;8.10;;;31.10;76.80;;;;;;4998326;28;20457;-64
2021/09/02 08:58:07;;;;;;;9.97;9.10;;;31.10;73.70;;;;;;4998916;28;20461;-66
2021/09/02 09:00:34;;;;;;;9.33;8.60;;;31.00;73.80;;;;;;4998258;28;20485;-66
2021/09/02 09:03:03;;;;;;;9.47;8.63;;;31.30;74.30;;;;;;4998457;28;20442;-65
2021/09/02 09:05:31;;;;;;;8.77;8.10;;;31.70;71.60;;;;;;4997980;28;20457;-65
2021/09/02 09:07:59;;;;;;;8.37;7.87;;;31.90;73.70;;;;;;4998040;28;20449;-65
2021/09/02 09:10:29;;;;;;;8.23;7.63;;;31.50;73.00;;;;;;4998537;28;20466;-65
2021/09/02 09:12:58;;;;;;;9.97;9.23;;;32.20;75.90;;;;;;4999417;28;20434;-65
2021/09/02 09:15:27;;;;;;;8.23;7.60;;;32.30;72.80;;;;;;5001390;28;20944;-64
2021/09/02 09:17:55;;;;;;;9.07;8.37;;;32.80;68.90;;;;;;4997935;28;20476;-64
2021/09/02 09:20:24;;;;;;;8.90;8.20;;;33.00;68.90;;;;;;4998014;28;20449;-65
2021/09/02 09:22:57;;;;;;;8.20;7.60;;;32.90;68.10;;;;;;4997992;28;20458;-64
2021/09/02 09:25:25;;;;;;;7.97;7.40;;;32.70;67.70;;;;;;5003246;28;20776;-65
2021/09/02 09:27:54;;;;;;;7.33;6.83;;;32.80;66.80;;;;;;4999881;28;20453;-65
2021/09/02 09:30:22;;;;;;;8.27;7.53;;;33.10;64.30;;;;;;4997796;28;20473;-66
2021/09/02 09:32:52;;;;;;;8.00;7.40;;;33.60;64.40;;;;;;4999138;28;20477;-65
2021/09/02 09:35:22;;;;;;;7.70;7.10;;;33.30;61.90;;;;;;4999969;28;20457;-65
2021/09/02 09:37:51;;;;;;;8.30;7.60;;;33.30;63.40;;;;;;4998323;28;20927;-65
2021/09/02 09:40:23;;;;;;;8.63;7.80;;;33.20;64.60;;;;;;4997427;28;20950;-66
2021/09/02 09:43:06;;;;;;;6.70;6.30;;;32.80;63.60;;;;;;4997070;28;20446;-65
2021/09/02 09:45:44;;;;;;;7.63;7.13;;;33.60;66.40;;;;;;4997803;28;20437;-65
2021/09/02 09:48:38;;;;;;;10.53;7.67;;;33.70;65.00;;;;;;4998673;28;20460;-65
2021/09/02 09:51:11;;;;;;;7.90;7.30;;;34.00;61.10;;;;;;4997655;28;20827;-65
2021/09/02 09:53:39;;;;;;;8.20;7.70;;;34.70;61.00;;;;;;4997664;28;20446;-65
2021/09/02 09:56:06;;;;;;;8.13;7.53;;;34.80;59.80;;;;;;4998053;28;20951;-65
2021/09/02 09:58:35;;;;;;;8.30;7.70;;;34.90;58.90;;;;;;4997485;28;20457;-66
2021/09/02 10:01:05;;;;;;;8.53;7.90;;;34.70;57.50;;;;;;4997118;28;20493;-65
2021/09/02 10:03:33;;;;;;;8.50;7.80;;;34.40;58.20;;;;;;4997984;28;20771;-65
2021/09/02 10:06:04;;;;;;;8.93;8.23;;;34.10;58.50;;;;;;4997267;28;20530;-64
2021/09/02 10:08:33;;;;;;;9.07;8.37;;;33.80;57.70;;;;;;4997342;28;20512;-64
2021/09/02 10:11:01;;;;;;;8.27;7.57;;;33.90;59.90;;;;;;4997099;28;20481;-65
2021/09/02 10:13:29;;;;;;;7.53;6.93;;;33.60;60.00;;;;;;4997066;28;20453;-65
2021/09/02 10:15:57;;;;;;;8.87;8.17;;;33.80;63.00;;;;;;4997027;28;20455;-65
2021/09/02 10:18:24;;;;;;;8.13;7.40;;;34.30;60.00;;;;;;4997619;28;20458;-65
2021/09/02 10:20:51;;;;;;;8.07;7.13;;;34.60;59.00;;;;;;5012242;28;20472;-67
2021/09/02 10:23:23;;;;;;;7.87;7.27;;;34.70;55.80;;;;;;5006855;28;20457;-66
2021/09/02 10:25:49;;;;;;;7.00;6.50;;;35.00;57.80;;;;;;4997726;28;20443;-66
2021/09/02 10:28:23;;;;;;;6.63;6.13;;;35.60;57.80;;;;;;4997046;28;20458;-64
2021/09/02 10:30:51;;;;;;;8.63;6.93;;;35.50;55.10;;;;;;4997499;28;20483;-64
2021/09/02 10:33:37;;;;;;;8.20;7.20;;;34.80;54.20;;;;;;4996894;28;20463;-65
2021/09/02 10:36:40;;;;;;;7.30;6.80;;;34.60;59.30;;;;;;4996920;28;20446;-66
2021/09/02 10:39:06;;;;;;;6.90;6.40;;;34.40;56.60;;;;;;4996688;28;20456;-64
2021/09/02 10:41:48;;;;;;;6.30;5.80;;;34.40;54.90;;;;;;4996769;28;20476;-65
2021/09/02 10:44:17;;;;;;;7.03;6.33;;;34.30;54.60;;;;;;4996567;28;21007;-65
2021/09/02 10:46:45;;;;;;;5.77;5.27;;;34.00;54.00;;;;;;4997042;28;20450;-64
2021/09/02 10:49:21;;;;;;;6.03;5.63;;;34.00;55.10;;;;;;4996357;28;20456;-66
2021/09/02 10:51:49;;;;;;;6.40;5.90;;;34.30;54.30;;;;;;4996176;28;20480;-65
2021/09/02 10:54:22;;;;;;;6.93;6.43;;;33.90;55.50;;;;;;4995302;28;20472;-65
2021/09/02 10:56:55;;;;;;;6.77;6.33;;;33.80;55.70;;;;;;4997023;28;20469;-63
2021/09/02 10:59:53;;;;;;;6.57;6.17;;;33.40;54.80;;;;;;4996172;28;20493;-64
2021/09/02 11:02:44;;;;;;;6.37;5.70;;;32.90;56.20;;;;;;4954817;29;20507;-64
2021/09/02 11:05:15;;;;;;;6.13;5.73;;;32.40;55.30;;;;;;4993719;28;20872;-64
2021/09/02 11:07:44;;;;;;;5.53;5.10;;;32.20;58.30;;;;;;4995969;28;20442;-64
2021/09/02 11:10:13;;;;;;;7.90;6.07;;;32.30;58.30;;;;;;4995832;28;20486;-64
2021/09/02 11:12:41;;;;;;;6.57;5.97;;;32.30;57.80;;;;;;4995639;28;20814;-64
2021/09/02 11:15:08;;;;;;;6.07;5.67;;;32.40;58.60;;;;;;4995942;28;20557;-63
2021/09/02 11:17:35;;;;;;;6.97;6.47;;;32.20;58.40;;;;;;4995618;28;20457;-64
2021/09/02 11:20:02;;;;;;;6.60;6.03;;;31.90;59.30;;;;;;4995481;28;20457;-65
2021/09/02 11:22:30;;;;;;;6.50;6.00;;;31.40;58.30;;;;;;4995680;28;20835;-63
2021/09/02 11:24:57;;;;;;;6.70;6.00;;;31.20;61.50;;;;;;4995745;28;20461;-63
2021/09/02 11:27:29;;;;;;;7.70;7.03;;;30.70;60.50;;;;;;4995066;28;20594;-64
2021/09/02 11:30:18;;;;;;;6.90;6.20;;;30.20;60.00;;;;;;4996131;28;20513;-64
2021/09/02 11:32:51;;;;;;;7.17;6.67;;;29.50;62.20;;;;;;4995519;28;20438;-64
2021/09/02 11:35:18;;;;;;;7.33;6.63;;;29.10;62.50;;;;;;4995549;28;20809;-65
2021/09/02 11:37:46;;;;;;;6.57;6.07;;;28.70;62.80;;;;;;4995747;28;20453;-66
2021/09/02 11:40:23;;;;;;;9.40;7.23;;;28.50;68.50;;;;;;4995260;28;20446;-65
2021/09/02 11:42:50;;;;;;;6.10;5.70;;;28.40;66.50;;;;;;4995685;28;20442;-65
2021/09/02 11:45:17;;;;;;;7.03;6.43;;;28.50;70.10;;;;;;4995533;28;20453;-65
2021/09/02 11:47:46;;;;;;;6.67;6.27;;;28.30;66.40;;;;;;4995401;28;20461;-62
2021/09/02 11:50:13;;;;;;;7.13;6.57;;;28.30;71.50;;;;;;4995422;28;20478;-65
2021/09/02 11:52:42;;;;;;;7.47;6.87;;;28.40;68.20;;;;;;4995401;28;20798;-64
2021/09/02 11:55:14;;;;;;;8.50;7.63;;;28.30;70.00;;;;;;4995669;28;20461;-65
2021/09/02 11:57:40;;;;;;;7.90;7.07;;;28.30;70.20;;;;;;4995374;28;20500;-63
2021/09/02 12:00:14;;;;;;;7.23;6.63;;;28.40;70.20;;;;;;4994450;28;20450;-63
2021/09/02 12:02:47;;;;;;;6.53;6.10;;;28.60;68.80;;;;;;4994610;28;20438;-64
2021/09/02 12:05:14;;;;;;;7.00;6.50;;;28.40;70.00;;;;;;4994445;28;20441;-65
2021/09/02 12:07:40;;;;;;;7.20;6.50;;;28.10;66.30;;;;;;4995077;28;20449;-65
2021/09/02 12:10:10;;;;;;;6.47;5.97;;;27.90;68.10;;;;;;4994956;28;20555;-64
2021/09/02 12:12:37;;;;;;;7.03;6.43;;;28.00;68.40;;;;;;4994978;28;20473;-65
2021/09/02 12:15:05;;;;;;;6.60;6.10;;;28.00;67.50;;;;;;4995057;28;20453;-64
2021/09/02 12:17:33;;;;;;;6.70;6.20;;;28.10;69.50;;;;;;4994785;28;20806;-64
2021/09/02 12:20:02;;;;;;;7.10;6.50;;;28.10;72.10;;;;;;4995177;28;20457;-65
2021/09/02 12:22:33;;;;;;;7.37;6.87;;;28.40;73.60;;;;;;4995069;28;20474;-65
2021/09/02 12:25:12;;;;;;;7.17;6.67;;;28.50;65.20;;;;;;4995090;28;20457;-64
2021/09/02 12:27:47;;;;;;;6.40;5.90;;;28.40;67.40;;;;;;4995214;28;20449;-65
2021/09/02 12:30:14;;;;;;;6.33;5.83;;;28.40;67.90;;;;;;4994946;28;20469;-65
2021/09/02 12:32:41;;;;;;;7.77;6.30;;;28.00;69.70;;;;;;4994899;28;20449;-65
2021/09/02 12:35:14;;;;;;;9.87;8.87;;;28.00;67.50;;;;;;4994826;28;20457;-65
2021/09/02 12:37:41;;;;;;;7.33;6.33;;;28.00;66.90;;;;;;4994718;28;20453;-65
2021/09/02 12:40:16;;;;;;;14.20;12.70;;;28.00;66.00;;;;;;4994643;28;20826;-65
2021/09/02 12:42:42;;;;;;;11.37;10.27;;;28.20;67.90;;;;;;4994696;28;20433;-65
2021/09/02 12:45:11;;;;;;;6.83;6.33;;;28.30;68.90;;;;;;4994722;28;20512;-65
2021/09/02 12:47:38;;;;;;;6.10;5.70;;;28.10;65.80;;;;;;4994819;28;20499;-65
2021/09/02 12:50:15;;;;;;;6.70;6.20;;;28.10;64.50;;;;;;4994492;28;20488;-65
2021/09/02 12:52:41;;;;;;;6.30;5.80;;;28.30;67.10;;;;;;4994800;28;20441;-65
2021/09/02 12:55:11;;;;;;;6.80;6.30;;;28.20;69.30;;;;;;4994541;28;20458;-65
2021/09/02 12:57:42;;;;;;;5.67;5.27;;;28.10;66.70;;;;;;4994743;28;20460;-65
2021/09/02 13:00:12;;;;;;;5.57;5.17;;;28.30;67.40;;;;;;4994505;28;20449;-65
2021/09/02 13:02:39;;;;;;;6.83;5.97;;;28.50;67.10;;;;;;4994824;28;20472;-63
2021/09/02 13:05:07;;;;;;;7.83;5.70;;;28.30;66.50;;;;;;4994981;28;20458;-65
2021/09/02 13:07:34;;;;;;;6.10;5.60;;;28.10;64.40;;;;;;4994752;28;20454;-65
2021/09/02 13:10:01;;;;;;;5.43;5.00;;;28.20;65.30;;;;;;5000221;28;20452;-65
2021/09/02 13:12:28;;;;;;;6.83;6.20;;;27.90;68.80;;;;;;4999027;28;20876;-65
2021/09/02 13:14:56;;;;;;;5.47;5.10;;;28.10;68.00;;;;;;4995050;28;20450;-65
2021/09/02 13:17:22;;;;;;;6.00;5.50;;;28.20;67.90;;;;;;4996278;28;20457;-65
2021/09/02 13:19:49;;;;;;;6.80;6.20;;;28.40;68.20;;;;;;4998341;28;20454;-64
2021/09/02 13:22:16;;;;;;;5.77;5.37;;;28.40;69.10;;;;;;4998048;28;20480;-65
2021/09/02 13:24:42;;;;;;;6.97;6.30;;;28.30;64.30;;;;;;4998269;28;20454;-64
2021/09/02 13:27:09;;;;;;;7.93;6.67;;;28.30;64.40;;;;;;4998142;28;20504;-65
2021/09/02 13:29:36;;;;;;;5.50;5.03;;;28.10;63.30;;;;;;4998112;28;20453;-64
2021/09/02 13:32:04;;;;;;;6.60;6.10;;;28.10;65.30;;;;;;4997703;28;20849;-64
2021/09/02 13:34:31;;;;;;;6.00;5.60;;;28.00;65.80;;;;;;4997823;28;20457;-65
2021/09/02 13:36:58;;;;;;;6.03;5.53;;;28.00;66.20;;;;;;4997706;28;20461;-65
2021/09/02 13:39:25;;;;;;;5.60;5.30;;;28.10;63.00;;;;;;4997844;28;20465;-65
2021/09/02 13:41:52;;;;;;;5.27;4.97;;;27.90;60.80;;;;;;4998143;28;20478;-64
2021/09/02 13:44:19;;;;;;;6.17;5.77;;;27.70;64.30;;;;;;4997686;28;20453;-63
2021/09/02 13:46:46;;;;;;;5.50;5.17;;;27.70;65.30;;;;;;4997610;28;20458;-63
2021/09/02 13:49:14;;;;;;;5.67;5.17;;;27.60;65.40;;;;;;4997674;28;20454;-63
2021/09/02 13:51:40;;;;;;;5.40;5.00;;;27.80;64.30;;;;;;4996971;28;20487;-64
2021/09/02 13:54:07;;;;;;;5.37;4.87;;;28.00;64.00;;;;;;4997624;28;20481;-64
2021/09/02 13:56:34;;;;;;;5.00;4.60;;;28.00;66.20;;;;;;4997429;28;20453;-64
2021/09/02 13:59:01;;;;;;;5.23;4.93;;;28.00;63.10;;;;;;4997333;28;20464;-64
2021/09/02 14:01:28;;;;;;;5.50;5.10;;;27.90;62.30;;;;;;4996812;28;20481;-64
2021/09/02 14:03:55;;;;;;;5.60;5.20;;;27.80;61.70;;;;;;4997010;28;20461;-64
2021/09/02 14:06:23;;;;;;;4.80;4.50;;;27.70;63.10;;;;;;4996941;28;20461;-63
2021/09/02 14:08:50;;;;;;;6.00;5.40;;;27.40;61.80;;;;;;4996632;28;20487;-64
2021/09/02 14:11:17;;;;;;;5.67;5.23;;;27.40;63.20;;;;;;4996713;28;20485;-64
2021/09/02 14:13:44;;;;;;;4.93;4.53;;;27.40;62.30;;;;;;4997121;28;20458;-64
2021/09/02 14:16:11;;;;;;;5.90;5.43;;;27.40;63.70;;;;;;4997020;28;20461;-64
2021/09/02 14:18:37;;;;;;;5.43;4.97;;;27.40;65.00;;;;;;4997181;28;20454;-64
2021/09/02 14:21:04;;;;;;;6.10;5.30;;;27.50;65.70;;;;;;4996470;28;20475;-64
2021/09/02 14:23:32;;;;;;;6.37;5.70;;;27.50;65.60;;;;;;4996542;28;20909;-64
2021/09/02 14:25:59;;;;;;;5.87;5.47;;;27.60;65.60;;;;;;4996621;28;20461;-64
2021/09/02 14:28:26;;;;;;;6.13;5.20;;;27.50;64.00;;;;;;4996247;28;20972;-65
2021/09/02 14:30:53;;;;;;;6.20;5.70;;;27.60;65.50;;;;;;4996653;28;20488;-65
2021/09/02 14:33:20;;;;;;;6.07;5.63;;;27.60;66.20;;;;;;4996403;28;20457;-64
2021/09/02 14:35:47;;;;;;;4.93;4.63;;;27.70;64.80;;;;;;4996303;28;20851;-64
2021/09/02 14:38:14;;;;;;;5.93;5.50;;;27.80;65.50;;;;;;4996591;28;20461;-64
2021/09/02 14:40:44;;;;;;;5.60;5.10;;;27.80;67.00;;;;;;4997039;28;20470;-64
2021/09/02 14:43:11;;;;;;;5.97;5.30;;;28.00;65.70;;;;;;4996344;28;20486;-64
2021/09/02 14:45:38;;;;;;;5.60;5.20;;;27.90;63.30;;;;;;4996220;28;20453;-64
2021/09/02 14:48:06;;;;;;;6.17;5.57;;;27.90;64.00;;;;;;4996435;28;20467;-64
2021/09/02 14:50:33;;;;;;;5.20;4.80;;;27.80;63.60;;;;;;4995803;28;20464;-65
2021/09/02 14:53:00;;;;;;;5.93;5.43;;;27.60;63.40;;;;;;4995797;28;20941;-64
2021/09/02 14:55:27;;;;;;;5.70;5.30;;;27.40;66.40;;;;;;4996013;28;20460;-64
2021/09/02 14:57:55;;;;;;;5.20;4.80;;;27.50;64.40;;;;;;4996081;28;20470;-64
2021/09/02 15:00:21;;;;;;;5.10;4.63;;;27.40;64.30;;;;;;4995312;28;20462;-65
2021/09/02 15:02:48;;;;;;;5.27;4.97;;;27.40;64.50;;;;;;4996068;28;20446;-64
2021/09/02 15:05:16;;;;;;;4.97;4.50;;;27.40;63.80;;;;;;4996140;28;20458;-64
2021/09/02 15:07:43;;;;;;;5.17;4.77;;;27.30;66.10;;;;;;4996068;28;20453;-64
2021/09/02 15:10:11;;;;;;;4.73;4.20;;;27.20;66.80;;;;;;4996004;28;20461;-64
2021/09/02 15:12:38;;;;;;;7.07;5.10;;;27.30;67.70;;;;;;4995470;28;20886;-64
2021/09/02 15:15:08;;;;;;;5.13;4.77;;;27.30;65.20;;;;;;4995713;28;20457;-64
2021/09/02 15:17:34;;;;;;;5.70;4.70;;;27.20;64.80;;;;;;4995771;28;20536;-64
2021/09/02 15:20:01;;;;;;;4.67;4.33;;;27.00;64.40;;;;;;4995643;28;20971;-64
2021/09/02 15:22:28;;;;;;;5.30;4.90;;;26.90;64.20;;;;;;4995812;28;20472;-64
2021/09/02 15:24:55;;;;;;;8.47;4.90;;;26.70;65.10;;;;;;4995332;28;20959;-64
2021/09/02 15:27:21;;;;;;;4.93;4.50;;;26.70;68.20;;;;;;4995496;28;20964;-64
2021/09/02 15:29:52;;;;;;;6.37;5.03;;;26.60;66.80;;;;;;4996014;28;20457;-64
2021/09/02 15:32:20;;;;;;;4.90;4.60;;;26.40;67.00;;;;;;4995545;28;20479;-65
2021/09/02 15:34:47;;;;;;;4.90;4.50;;;26.40;67.90;;;;;;4995619;28;20465;-65
2021/09/02 15:37:14;;;;;;;5.67;5.27;;;26.30;67.60;;;;;;4995719;28;20465;-65
2021/09/02 15:39:40;;;;;;;4.70;4.30;;;26.20;67.60;;;;;;4995119;28;20469;-65
2021/09/02 15:42:07;;;;;;;5.63;4.63;;;26.20;67.10;;;;;;4995275;28;20477;-65
2021/09/02 15:44:34;;;;;;;5.03;4.53;;;26.20;69.00;;;;;;4994926;28;20913;-65
2021/09/02 15:47:01;;;;;;;5.60;5.13;;;26.20;71.00;;;;;;4995257;28;20462;-65
2021/09/02 15:49:29;;;;;;;5.00;4.67;;;26.20;69.60;;;;;;4995170;28;20497;-65
2021/09/02 15:51:57;;;;;;;5.83;5.07;;;26.20;71.50;;;;;;4994866;28;20489;-64
2021/09/02 15:54:23;;;;;;;4.90;4.60;;;26.20;69.40;;;;;;4995428;28;20853;-64
2021/09/02 15:56:50;;;;;;;5.20;4.80;;;26.30;71.40;;;;;;4996504;28;20461;-64
2021/09/02 15:59:17;;;;;;;6.07;5.30;;;26.30;71.80;;;;;;5001777;28;20453;-64
2021/09/02 16:01:43;;;;;;;5.57;5.10;;;26.30;73.60;;;;;;4995721;28;20477;-65
2021/09/02 16:04:11;;;;;;;5.47;5.07;;;26.20;71.80;;;;;;4995801;28;20494;-64
2021/09/02 16:06:39;;;;;;;5.37;4.97;;;26.10;73.30;;;;;;4995173;28;20960;-65
2021/09/02 16:09:06;;;;;;;6.57;6.07;;;25.90;72.30;;;;;;4995997;28;20461;-65
2021/09/02 16:11:33;;;;;;;5.83;5.33;;;25.60;72.30;;;;;;4995233;28;20874;-65
2021/09/02 16:14:00;;;;;;;5.93;5.43;;;25.50;73.30;;;;;;4994833;28;20453;-65
2021/09/02 16:16:26;;;;;;;5.00;4.70;;;25.40;71.80;;;;;;4994727;28;20453;-64
2021/09/02 16:18:53;;;;;;;5.17;4.67;;;25.30;73.30;;;;;;4994743;28;20454;-65
2021/09/02 16:21:20;;;;;;;5.27;4.87;;;25.20;73.60;;;;;;4995435;28;20482;-65
2021/09/02 16:23:48;;;;;;;5.00;4.60;;;25.10;74.10;;;;;;4995102;28;20949;-64
2021/09/02 16:26:16;;;;;;;5.33;4.83;;;24.90;74.40;;;;;;4994886;28;20565;-64
2021/09/02 16:28:43;;;;;;;5.60;5.20;;;24.70;74.20;;;;;;4994938;28;20464;-65
2021/09/02 16:31:11;;;;;;;6.37;5.77;;;24.70;74.70;;;;;;4994514;28;20477;-65
2021/09/02 16:33:37;;;;;;;5.60;5.00;;;24.60;74.60;;;;;;4994328;28;20454;-64
2021/09/02 16:36:05;;;;;;;5.50;4.87;;;24.50;75.80;;;;;;4995655;28;20454;-65
2021/09/02 16:38:31;;;;;;;6.00;5.60;;;24.40;76.90;;;;;;4994761;28;20454;-64
2021/09/02 16:41:00;;;;;;;5.90;5.40;;;24.30;77.30;;;;;;4994235;28;20855;-65
2021/09/02 16:43:26;;;;;;;6.10;5.60;;;24.20;77.60;;;;;;4994479;28;20460;-65
2021/09/02 16:45:53;;;;;;;6.00;5.60;;;24.20;78.90;;;;;;4995235;28;20802;-64
2021/09/02 16:48:20;;;;;;;5.70;5.23;;;24.20;79.60;;;;;;4994551;28;20458;-64